KCFD/CFD METAR and TAF weather

Enter ICAO airport designator
Station Type Date Time Source
KCFD METAR 2020/09/27 03:35 UTC NOAA

KCFD 270335Z AUTO 14005KT 10SM CLR 23/20 A2987 RMK AO2 T02290196


Station Type Date Time Source
KCFD Decoded METAR 2020/09/27 03:35 UTC NOAA

Station name not available
Sep 26, 2020 - 11:35 PM EDT / 2020.09.27 0335 UTC
Wind: from the SE (140 degrees) at 6 MPH (5 KT):0
Visibility: 10 mile(s):0
Sky conditions: clear
Temperature: 73.2 F (22.9 C)
Dew Point: 67.3 F (19.6 C)
Relative Humidity: 81%
Pressure (altimeter): 29.87 in. Hg (1011 hPa)
ob: KCFD 270335Z AUTO 14005KT 10SM CLR 23/20 A2987 RMK AO2 T02290196
cycle: 3

Station Type Date Time Source
KCFD TAF UTC NOAA

Error!

Example: see airport list